SPH102 RPLL-RPVE
Flight info
| Callsign | SPH102 |
|---|---|
| Flight time | 0h 39m |
| Altitude | 23000 |
| Route | VERDE2V VERDE W24 TAPER TAPER7B |
| Aircraft | A20N/M-V/N |
Departure
| Time | 2026-05-06 19:38 |
|---|---|
| Airport | Ninoy Aquino International Airport (RPLL) |
Arrival
| Time | 2026-05-06 20:18 |
|---|---|
| Airport | Godofredo P. Ramos Airport (RPVE) |
| Time | Latitude | Longitude | Altitude | Speed | Heading |
|---|---|---|---|---|---|
| 2026-05-06 18:46 | 14.50862 | 121.01337 | 68 ft | 0 kts | 329° |
| 2026-05-06 19:29 | 14.50854 | 121.01342 | 58 ft | 4 kts | 327° |
| 2026-05-06 19:29 | 14.50832 | 121.01358 | 66 ft | 4 kts | 318° |
| 2026-05-06 19:29 | 14.50813 | 121.01378 | 58 ft | 4 kts | 305° |
| 2026-05-06 19:29 | 14.50801 | 121.01402 | 63 ft | 4 kts | 275° |
| 2026-05-06 19:30 | 14.50802 | 121.01417 | 61 ft | 0 kts | 246° |
| 2026-05-06 19:33 | 14.50800 | 121.01413 | 62 ft | 2 kts | 246° |
| 2026-05-06 19:33 | 14.50787 | 121.01381 | 59 ft | 8 kts | 248° |
| 2026-05-06 19:33 | 14.50746 | 121.01325 | 68 ft | 12 kts | 209° |
| 2026-05-06 19:34 | 14.50669 | 121.01312 | 63 ft | 11 kts | 201° |
| 2026-05-06 19:34 | 14.50624 | 121.01240 | 65 ft | 14 kts | 242° |
| 2026-05-06 19:34 | 14.50572 | 121.01146 | 60 ft | 17 kts | 239° |
| 2026-05-06 19:34 | 14.50506 | 121.01033 | 66 ft | 20 kts | 238° |
| 2026-05-06 19:35 | 14.50437 | 121.00904 | 64 ft | 22 kts | 239° |
| 2026-05-06 19:35 | 14.50354 | 121.00760 | 61 ft | 25 kts | 239° |
| 2026-05-06 19:35 | 14.50271 | 121.00606 | 60 ft | 25 kts | 240° |
| 2026-05-06 19:35 | 14.50180 | 121.00441 | 59 ft | 27 kts | 239° |
| 2026-05-06 19:36 | 14.50086 | 121.00275 | 63 ft | 27 kts | 239° |
| 2026-05-06 19:36 | 14.50002 | 121.00123 | 60 ft | 23 kts | 240° |
| 2026-05-06 19:36 | 14.49919 | 120.99977 | 64 ft | 15 kts | 229° |
| 2026-05-06 19:36 | 14.49864 | 120.99971 | 66 ft | 9 kts | 156° |
| 2026-05-06 19:37 | 14.49806 | 121.00009 | 64 ft | 6 kts | 138° |
| 2026-05-06 19:37 | 14.49813 | 121.00060 | 62 ft | 10 kts | 59° |
| 2026-05-06 19:37 | 14.49855 | 121.00130 | 64 ft | 10 kts | 62° |
| 2026-05-06 19:37 | 14.49858 | 121.00137 | 60 ft | 0 kts | 62° |
| 2026-05-06 19:38 | 14.49976 | 121.00350 | 61 ft | 81 kts | 60° |
| 2026-05-06 19:38 | 14.50389 | 121.01093 | 62 ft | 154 kts | 60° |
| 2026-05-06 19:38 | 14.50991 | 121.02186 | 475 ft | 182 kts | 62° |
| 2026-05-06 19:38 | 14.51262 | 121.03416 | 1561 ft | 177 kts | 98° |
| 2026-05-06 19:39 | 14.50701 | 121.04553 | 2486 ft | 190 kts | 135° |
| 2026-05-06 19:39 | 14.49484 | 121.05239 | 3240 ft | 211 kts | 157° |
| 2026-05-06 19:39 | 14.48060 | 121.05802 | 3794 ft | 229 kts | 153° |
| 2026-05-06 19:39 | 14.46593 | 121.06630 | 4241 ft | 252 kts | 143° |
| 2026-05-06 19:40 | 14.45149 | 121.07772 | 4829 ft | 269 kts | 137° |
| 2026-05-06 19:40 | 14.43639 | 121.08943 | 5652 ft | 275 kts | 152° |
| 2026-05-06 19:40 | 14.41780 | 121.09430 | 6520 ft | 281 kts | 178° |
| 2026-05-06 19:40 | 14.39825 | 121.09148 | 7328 ft | 287 kts | 191° |
| 2026-05-06 19:41 | 14.37884 | 121.08647 | 8131 ft | 291 kts | 193° |
| 2026-05-06 19:41 | 14.35908 | 121.08093 | 8950 ft | 295 kts | 193° |
| 2026-05-06 19:41 | 14.33910 | 121.07546 | 9773 ft | 298 kts | 192° |
| 2026-05-06 19:41 | 14.31881 | 121.07015 | 10406 ft | 308 kts | 192° |
| 2026-05-06 19:42 | 14.29723 | 121.06442 | 10639 ft | 331 kts | 195° |
| 2026-05-06 19:42 | 14.27540 | 121.05608 | 10885 ft | 351 kts | 203° |
| 2026-05-06 19:42 | 14.25388 | 121.04363 | 11510 ft | 357 kts | 212° |
| 2026-05-06 19:42 | 14.23324 | 121.02907 | 12214 ft | 361 kts | 213° |
| 2026-05-06 19:43 | 14.21259 | 121.01412 | 12883 ft | 365 kts | 214° |
| 2026-05-06 19:43 | 14.19172 | 120.99902 | 13551 ft | 369 kts | 213° |
| 2026-05-06 19:43 | 14.17051 | 120.98382 | 14145 ft | 372 kts | 213° |
| 2026-05-06 19:43 | 14.14912 | 120.96861 | 14716 ft | 376 kts | 213° |
| 2026-05-06 19:44 | 14.12747 | 120.95329 | 15276 ft | 379 kts | 213° |
| 2026-05-06 19:44 | 14.10559 | 120.93788 | 15844 ft | 382 kts | 213° |
| 2026-05-06 19:44 | 14.08358 | 120.92239 | 16397 ft | 386 kts | 213° |
| 2026-05-06 19:44 | 14.06060 | 120.90793 | 16925 ft | 388 kts | 202° |
| 2026-05-06 19:45 | 14.03472 | 120.90043 | 17448 ft | 389 kts | 185° |
| 2026-05-06 19:45 | 14.00770 | 120.90126 | 17960 ft | 389 kts | 167° |
| 2026-05-06 19:45 | 13.98133 | 120.90795 | 18424 ft | 392 kts | 163° |
| 2026-05-06 19:45 | 13.95505 | 120.91579 | 18878 ft | 394 kts | 162° |
| 2026-05-06 19:46 | 13.92855 | 120.92363 | 19340 ft | 397 kts | 163° |
| 2026-05-06 19:46 | 13.90178 | 120.93110 | 19797 ft | 400 kts | 164° |
| 2026-05-06 19:46 | 13.87506 | 120.93819 | 20236 ft | 404 kts | 165° |
| 2026-05-06 19:46 | 13.84731 | 120.94535 | 20695 ft | 407 kts | 165° |
| 2026-05-06 19:47 | 13.82016 | 120.95226 | 21134 ft | 409 kts | 165° |
| 2026-05-06 19:47 | 13.79239 | 120.95930 | 21580 ft | 412 kts | 165° |
| 2026-05-06 19:47 | 13.76441 | 120.96641 | 22020 ft | 415 kts | 165° |
| 2026-05-06 19:47 | 13.73623 | 120.97359 | 22462 ft | 418 kts | 165° |
| 2026-05-06 19:48 | 13.70790 | 120.98081 | 22659 ft | 420 kts | 165° |
| 2026-05-06 19:48 | 13.67949 | 120.98807 | 22752 ft | 420 kts | 165° |
| 2026-05-06 19:48 | 13.65110 | 120.99532 | 22854 ft | 421 kts | 165° |
| 2026-05-06 19:48 | 13.62268 | 121.00258 | 22872 ft | 421 kts | 165° |
| 2026-05-06 19:49 | 13.59420 | 121.00985 | 22879 ft | 421 kts | 165° |
| 2026-05-06 19:49 | 13.56578 | 121.01711 | 22875 ft | 421 kts | 165° |
| 2026-05-06 19:49 | 13.53732 | 121.02445 | 22881 ft | 421 kts | 163° |
| 2026-05-06 19:49 | 13.50956 | 121.03382 | 22883 ft | 420 kts | 157° |
| 2026-05-06 19:50 | 13.48310 | 121.04632 | 22883 ft | 418 kts | 150° |
| 2026-05-06 19:50 | 13.45842 | 121.06207 | 22884 ft | 417 kts | 144° |
| 2026-05-06 19:50 | 13.43446 | 121.07909 | 22884 ft | 417 kts | 143° |
| 2026-05-06 19:50 | 13.41075 | 121.09620 | 22884 ft | 417 kts | 143° |
| 2026-05-06 19:51 | 13.38694 | 121.11333 | 22882 ft | 417 kts | 144° |
| 2026-05-06 19:51 | 13.36313 | 121.13033 | 22883 ft | 417 kts | 144° |
| 2026-05-06 19:51 | 13.33967 | 121.14695 | 22885 ft | 417 kts | 144° |
| 2026-05-06 19:51 | 13.31578 | 121.16378 | 22886 ft | 417 kts | 144° |
| 2026-05-06 19:52 | 13.29188 | 121.18057 | 22890 ft | 417 kts | 144° |
| 2026-05-06 19:52 | 13.26788 | 121.19740 | 22888 ft | 417 kts | 144° |
| 2026-05-06 19:52 | 13.24389 | 121.21421 | 22885 ft | 417 kts | 144° |
| 2026-05-06 19:52 | 13.21993 | 121.23100 | 22889 ft | 417 kts | 144° |
| 2026-05-06 19:53 | 13.19594 | 121.24781 | 22891 ft | 417 kts | 144° |
| 2026-05-06 19:53 | 13.17199 | 121.26459 | 22889 ft | 417 kts | 144° |
| 2026-05-06 19:53 | 13.14802 | 121.28138 | 22890 ft | 417 kts | 144° |
| 2026-05-06 19:53 | 13.12407 | 121.29816 | 22892 ft | 417 kts | 144° |
| 2026-05-06 19:54 | 13.10013 | 121.31493 | 22890 ft | 417 kts | 144° |
| 2026-05-06 19:54 | 13.07613 | 121.33173 | 22889 ft | 417 kts | 144° |
| 2026-05-06 19:54 | 13.05222 | 121.34848 | 22892 ft | 417 kts | 144° |
| 2026-05-06 19:54 | 13.02829 | 121.36523 | 22888 ft | 417 kts | 144° |
| 2026-05-06 19:55 | 13.00431 | 121.38202 | 22884 ft | 417 kts | 144° |
| 2026-05-06 19:55 | 12.98036 | 121.39877 | 22883 ft | 417 kts | 144° |
| 2026-05-06 19:55 | 12.95672 | 121.41531 | 22882 ft | 417 kts | 144° |
| 2026-05-06 19:55 | 12.93276 | 121.43206 | 22879 ft | 416 kts | 144° |
| 2026-05-06 19:56 | 12.90891 | 121.44872 | 22690 ft | 414 kts | 144° |
| 2026-05-06 19:56 | 12.88521 | 121.46528 | 22262 ft | 411 kts | 144° |
| 2026-05-06 19:56 | 12.86164 | 121.48173 | 21734 ft | 408 kts | 144° |
| 2026-05-06 19:56 | 12.83830 | 121.49803 | 21154 ft | 405 kts | 144° |
| 2026-05-06 19:57 | 12.81514 | 121.51420 | 20601 ft | 401 kts | 144° |
| 2026-05-06 19:57 | 12.79213 | 121.53027 | 20052 ft | 398 kts | 144° |
| 2026-05-06 19:57 | 12.76938 | 121.54615 | 19509 ft | 394 kts | 144° |
| 2026-05-06 19:57 | 12.75436 | 121.55663 | 19163 ft | 392 kts | 144° |
| 2026-05-06 19:58 | 12.73193 | 121.57229 | 18640 ft | 389 kts | 144° |
| 2026-05-06 19:58 | 12.70965 | 121.58783 | 18134 ft | 386 kts | 144° |
| 2026-05-06 19:58 | 12.68758 | 121.60323 | 17560 ft | 382 kts | 144° |
| 2026-05-06 19:58 | 12.66571 | 121.61848 | 17027 ft | 378 kts | 144° |
| 2026-05-06 19:59 | 12.64407 | 121.63358 | 16497 ft | 374 kts | 144° |
| 2026-05-06 19:59 | 12.62266 | 121.64852 | 15973 ft | 371 kts | 144° |
| 2026-05-06 19:59 | 12.60142 | 121.66333 | 15452 ft | 367 kts | 144° |
| 2026-05-06 19:59 | 12.58089 | 121.67765 | 14968 ft | 364 kts | 144° |
| 2026-05-06 20:00 | 12.56006 | 121.69218 | 14473 ft | 361 kts | 144° |
| 2026-05-06 20:00 | 12.53939 | 121.70660 | 13985 ft | 358 kts | 144° |
| 2026-05-06 20:00 | 12.51891 | 121.72086 | 13493 ft | 354 kts | 144° |
| 2026-05-06 20:00 | 12.49859 | 121.73500 | 12933 ft | 352 kts | 144° |
| 2026-05-06 20:01 | 12.47842 | 121.74904 | 12391 ft | 349 kts | 144° |
| 2026-05-06 20:01 | 12.45838 | 121.76297 | 11854 ft | 348 kts | 144° |
| 2026-05-06 20:01 | 12.43841 | 121.77685 | 11340 ft | 345 kts | 144° |
| 2026-05-06 20:01 | 12.41861 | 121.79062 | 10817 ft | 344 kts | 144° |
| 2026-05-06 20:02 | 12.39888 | 121.80433 | 10319 ft | 342 kts | 144° |
| 2026-05-06 20:02 | 12.37949 | 121.81770 | 10136 ft | 329 kts | 146° |
| 2026-05-06 20:02 | 12.35981 | 121.82874 | 10017 ft | 317 kts | 154° |
| 2026-05-06 20:02 | 12.33948 | 121.83631 | 9893 ft | 306 kts | 162° |
| 2026-05-06 20:03 | 12.31918 | 121.84220 | 9571 ft | 301 kts | 162° |
| 2026-05-06 20:03 | 12.29932 | 121.84782 | 9405 ft | 292 kts | 162° |
| 2026-05-06 20:03 | 12.27959 | 121.85346 | 9285 ft | 296 kts | 162° |
| 2026-05-06 20:03 | 12.26002 | 121.85914 | 9159 ft | 295 kts | 162° |
| 2026-05-06 20:04 | 12.24008 | 121.86501 | 9039 ft | 294 kts | 161° |
| 2026-05-06 20:04 | 12.22049 | 121.87080 | 8914 ft | 294 kts | 161° |
| 2026-05-06 20:04 | 12.21413 | 121.87269 | 8869 ft | 294 kts | 161° |
| 2026-05-06 20:04 | 12.20208 | 121.87627 | 8796 ft | 293 kts | 161° |
| 2026-05-06 20:05 | 12.18275 | 121.88202 | 8662 ft | 292 kts | 161° |
| 2026-05-06 20:05 | 12.16340 | 121.88776 | 8251 ft | 289 kts | 161° |
| 2026-05-06 20:05 | 12.14413 | 121.89347 | 7720 ft | 288 kts | 161° |
| 2026-05-06 20:05 | 12.12531 | 121.89903 | 7514 ft | 274 kts | 161° |
| 2026-05-06 20:06 | 12.10757 | 121.90424 | 7382 ft | 258 kts | 160° |
| 2026-05-06 20:06 | 12.09085 | 121.90916 | 7241 ft | 243 kts | 160° |
| 2026-05-06 20:06 | 12.07484 | 121.91388 | 6915 ft | 238 kts | 160° |
| 2026-05-06 20:06 | 12.05879 | 121.91795 | 6485 ft | 240 kts | 173° |
| 2026-05-06 20:07 | 12.04228 | 121.91496 | 6028 ft | 247 kts | 205° |
| 2026-05-06 20:07 | 12.02917 | 121.90372 | 5574 ft | 249 kts | 232° |
| 2026-05-06 20:07 | 12.01940 | 121.88911 | 5166 ft | 248 kts | 237° |
| 2026-05-06 20:07 | 12.01039 | 121.87423 | 4793 ft | 245 kts | 237° |
| 2026-05-06 20:08 | 12.00128 | 121.85952 | 4389 ft | 244 kts | 236° |
| 2026-05-06 20:08 | 11.99197 | 121.84515 | 4013 ft | 241 kts | 235° |
| 2026-05-06 20:08 | 11.98245 | 121.83097 | 3601 ft | 241 kts | 234° |
| 2026-05-06 20:08 | 11.97300 | 121.81722 | 3240 ft | 239 kts | 233° |
| 2026-05-06 20:09 | 11.96348 | 121.80351 | 2957 ft | 234 kts | 233° |
| 2026-05-06 20:09 | 11.95428 | 121.79030 | 2851 ft | 223 kts | 234° |
| 2026-05-06 20:09 | 11.94559 | 121.77779 | 2849 ft | 212 kts | 233° |
| 2026-05-06 20:09 | 11.93695 | 121.76533 | 2853 ft | 218 kts | 233° |
| 2026-05-06 20:10 | 11.92825 | 121.75274 | 2850 ft | 217 kts | 233° |
| 2026-05-06 20:10 | 11.91918 | 121.74055 | 2819 ft | 212 kts | 220° |
| 2026-05-06 20:10 | 11.90649 | 121.73397 | 2483 ft | 203 kts | 182° |
| 2026-05-06 20:10 | 11.89335 | 121.73642 | 2173 ft | 187 kts | 144° |
| 2026-05-06 20:11 | 11.88193 | 121.74356 | 2147 ft | 187 kts | 142° |
| 2026-05-06 20:11 | 11.87133 | 121.75008 | 2010 ft | 169 kts | 144° |
| 2026-05-06 20:11 | 11.86146 | 121.75566 | 1889 ft | 155 kts | 146° |
| 2026-05-06 20:11 | 11.85210 | 121.76061 | 1871 ft | 156 kts | 147° |
| 2026-05-06 20:12 | 11.84243 | 121.76576 | 1844 ft | 152 kts | 139° |
| 2026-05-06 20:12 | 11.83695 | 121.77403 | 1862 ft | 143 kts | 95° |
| 2026-05-06 20:12 | 11.83877 | 121.78356 | 1859 ft | 139 kts | 60° |
| 2026-05-06 20:12 | 11.84354 | 121.79203 | 1859 ft | 138 kts | 60° |
| 2026-05-06 20:13 | 11.84807 | 121.80041 | 1860 ft | 131 kts | 61° |
| 2026-05-06 20:13 | 11.85216 | 121.80855 | 1851 ft | 129 kts | 62° |
| 2026-05-06 20:13 | 11.85617 | 121.81669 | 1851 ft | 128 kts | 63° |
| 2026-05-06 20:13 | 11.86021 | 121.82484 | 1843 ft | 129 kts | 64° |
| 2026-05-06 20:14 | 11.86422 | 121.83299 | 1854 ft | 129 kts | 63° |
| 2026-05-06 20:14 | 11.86825 | 121.84120 | 1841 ft | 129 kts | 63° |
| 2026-05-06 20:14 | 11.87235 | 121.84941 | 1843 ft | 131 kts | 64° |
| 2026-05-06 20:14 | 11.87642 | 121.85757 | 1865 ft | 130 kts | 63° |
| 2026-05-06 20:15 | 11.88047 | 121.86573 | 1860 ft | 128 kts | 63° |
| 2026-05-06 20:15 | 11.88458 | 121.87394 | 1842 ft | 130 kts | 64° |
| 2026-05-06 20:15 | 11.88891 | 121.88201 | 1817 ft | 131 kts | 61° |
| 2026-05-06 20:15 | 11.89336 | 121.89004 | 1576 ft | 130 kts | 60° |
| 2026-05-06 20:16 | 11.89762 | 121.89826 | 1185 ft | 132 kts | 63° |
| 2026-05-06 20:16 | 11.90178 | 121.90628 | 952 ft | 128 kts | 63° |
| 2026-05-06 20:16 | 11.90589 | 121.91435 | 722 ft | 128 kts | 62° |
| 2026-05-06 20:16 | 11.91022 | 121.92258 | 479 ft | 132 kts | 60° |
| 2026-05-06 20:17 | 11.91447 | 121.93067 | 365 ft | 132 kts | 66° |
| 2026-05-06 20:17 | 11.91820 | 121.93912 | 305 ft | 128 kts | 64° |
| 2026-05-06 20:17 | 11.92185 | 121.94751 | 135 ft | 131 kts | 69° |
| 2026-05-06 20:17 | 11.92544 | 121.95581 | 33 ft | 125 kts | 60° |
| 2026-05-06 20:18 | 11.92841 | 121.96178 | 32 ft | 52 kts | 64° |
| 2026-05-06 20:18 | 11.92936 | 121.96350 | 32 ft | 28 kts | 69° |
| 2026-05-06 20:18 | 11.92924 | 121.96469 | 36 ft | 11 kts | 127° |
| 2026-05-06 20:18 | 11.92856 | 121.96518 | 41 ft | 17 kts | 155° |
| 2026-05-06 20:19 | 11.92756 | 121.96443 | 42 ft | 17 kts | 243° |
| 2026-05-06 20:19 | 11.92704 | 121.96335 | 42 ft | 7 kts | 244° |
| 2026-05-06 20:19 | 11.92683 | 121.96325 | 42 ft | 6 kts | 184° |
| 2026-05-06 20:19 | 11.92668 | 121.96332 | 42 ft | 1 kts | 152° |
| 2026-05-06 20:20 | 11.92661 | 121.96335 | 42 ft | 0 kts | 152° |
| 2026-05-06 20:20 | 11.92658 | 121.96337 | 42 ft | 0 kts | 153° |
| 2026-05-06 20:22 | 11.92710 | 121.96437 | 42 ft | 0 kts | 154° |